Time;durP1;ratioP1;P1;durP2;ratioP2;P2;SDS_P1;SDS_P2;PMS_P1;PMS_P2;Temp;Humidity;BMP_temperature;BMP_pressure;BME280_temperature;BME280_humidity;BME280_pressure;Samples;Min_cycle;Max_cycle;Signal;HPM_P1;HPM_P2
2021/07/12 00:01:45;;;;;;;4.45;3.10;;;;;;;;;;5094367;28;20028;-58
2021/07/12 00:04:11;;;;;;;3.00;2.28;;;;;;;;;;5093910;28;20467;-58
2021/07/12 00:06:37;;;;;;;3.33;2.85;;;;;;;;;;5093732;28;20105;-58
2021/07/12 00:09:04;;;;;;;4.05;2.30;;;;;;;;;;5092854;28;20028;-58
2021/07/12 00:11:30;;;;;;;4.03;2.85;;;;;;;;;;5093305;28;20466;-58
2021/07/12 00:13:56;;;;;;;4.35;2.60;;;;;;;;;;5094071;28;20028;-57
2021/07/12 00:16:22;;;;;;;3.25;2.55;;;;;;;;;;5094325;28;20028;-62
2021/07/12 00:18:48;;;;;;;3.72;2.85;;;;;;;;;;5093460;28;20077;-58
2021/07/12 00:21:14;;;;;;;4.10;2.75;;;;;;;;;;5094368;28;20016;-58
2021/07/12 00:23:40;;;;;;;2.50;1.95;;;;;;;;;;5097120;28;20046;-57
2021/07/12 00:26:06;;;;;;;3.80;2.60;;;;;;;;;;5097742;28;20118;-58
2021/07/12 00:28:33;;;;;;;3.15;2.53;;;;;;;;;;5096429;28;20081;-58
2021/07/12 00:30:59;;;;;;;4.05;2.67;;;;;;;;;;5098476;28;20028;-57
2021/07/12 00:33:25;;;;;;;4.05;3.03;;;;;;;;;;5098574;28;20051;-59
2021/07/12 00:35:52;;;;;;;4.32;2.85;;;;;;;;;;5098029;28;20032;-58
2021/07/12 00:38:18;;;;;;;2.90;2.03;;;;;;;;;;5096992;28;20052;-58
2021/07/12 00:40:44;;;;;;;2.63;2.08;;;;;;;;;;5096013;28;20024;-57
2021/07/12 00:43:10;;;;;;;4.22;2.90;;;;;;;;;;5097937;28;20028;-57
2021/07/12 00:45:37;;;;;;;3.50;2.13;;;;;;;;;;5097771;28;20136;-58
2021/07/12 00:48:03;;;;;;;2.83;2.30;;;;;;;;;;5095969;28;20070;-58
2021/07/12 00:50:30;;;;;;;4.82;2.50;;;;;;;;;;5097521;28;20077;-58
2021/07/12 00:52:59;;;;;;;6.75;2.63;;;;;;;;;;5097401;28;20020;-58
2021/07/12 00:55:25;;;;;;;4.20;2.90;;;;;;;;;;5097303;28;20121;-58
2021/07/12 00:57:51;;;;;;;5.78;3.00;;;;;;;;;;5097348;28;20055;-58
2021/07/12 01:00:21;;;;;;;3.88;2.60;;;;;;;;;;5097754;28;20027;-58
2021/07/12 01:02:47;;;;;;;3.35;2.90;;;;;;;;;;5095981;28;20107;-57
2021/07/12 01:05:16;;;;;;;3.92;2.70;;;;;;;;;;5097107;28;20032;-58
2021/07/12 01:07:42;;;;;;;6.07;3.00;;;;;;;;;;5097188;28;20056;-57
2021/07/12 01:10:12;;;;;;;4.18;2.28;;;;;;;;;;5096965;28;20048;-58
2021/07/12 01:13:07;;;;;;;4.13;3.08;;;;;;;;;;5097019;28;20024;-57
2021/07/12 01:15:37;;;;;;;3.90;2.72;;;;;;;;;;5077971;28;20040;-58
2021/07/12 01:18:09;;;;;;;4.72;3.28;;;;;;;;;;5097325;28;20016;-58
2021/07/12 01:21:05;;;;;;;3.30;2.60;;;;;;;;;;5097175;28;20043;-57
2021/07/12 01:23:39;;;;;;;3.58;3.15;;;;;;;;;;5096301;28;20051;-58
2021/07/12 01:26:16;;;;;;;3.00;2.70;;;;;;;;;;5095162;28;20032;-57
2021/07/12 01:28:48;;;;;;;2.92;2.42;;;;;;;;;;5096741;28;20086;-58
2021/07/12 01:31:27;;;;;;;3.50;2.60;;;;;;;;;;5096465;28;20020;-57
2021/07/12 01:33:59;;;;;;;3.17;2.45;;;;;;;;;;5096390;28;20527;-58
2021/07/12 01:36:33;;;;;;;4.30;3.25;;;;;;;;;;5095571;28;20435;-58
2021/07/12 01:39:12;;;;;;;3.10;2.28;;;;;;;;;;5096549;28;20052;-57
2021/07/12 01:41:41;;;;;;;4.07;2.45;;;;;;;;;;5095810;28;20031;-58
2021/07/12 01:44:27;;;;;;;2.95;2.15;;;;;;;;;;5096425;28;20034;-58
2021/07/12 01:46:56;;;;;;;3.78;2.85;;;;;;;;;;5096088;28;20028;-57
2021/07/12 01:49:22;;;;;;;3.85;2.72;;;;;;;;;;5096258;28;20042;-57
2021/07/12 01:52:07;;;;;;;4.70;3.15;;;;;;;;;;5096580;28;20028;-58
2021/07/12 01:54:36;;;;;;;3.15;2.20;;;;;;;;;;5096492;28;20024;-57
2021/07/12 01:57:24;;;;;;;6.93;3.10;;;;;;;;;;5096145;28;20055;-57
2021/07/12 01:59:49;;;;;;;3.50;2.78;;;;;;;;;;5096770;28;20134;-57
2021/07/12 02:02:16;;;;;;;5.25;2.88;;;;;;;;;;5096166;28;20064;-58
2021/07/12 02:04:42;;;;;;;4.03;2.60;;;;;;;;;;5094442;28;20036;-57
2021/07/12 02:07:12;;;;;;;4.32;2.70;;;;;;;;;;5096720;28;20031;-58
2021/07/12 02:09:38;;;;;;;3.80;2.83;;;;;;;;;;5095707;28;20028;-58
2021/07/12 02:12:05;;;;;;;5.13;2.20;;;;;;;;;;5096307;28;20039;-58
2021/07/12 02:14:31;;;;;;;3.20;2.30;;;;;;;;;;5096368;28;20028;-58
2021/07/12 02:16:58;;;;;;;3.42;2.22;;;;;;;;;;5095776;28;20062;-57
2021/07/12 02:19:24;;;;;;;5.80;2.17;;;;;;;;;;5096122;28;20024;-58
2021/07/12 02:21:52;;;;;;;5.80;3.08;;;;;;;;;;5096356;28;20027;-58
2021/07/12 02:24:19;;;;;;;5.07;2.65;;;;;;;;;;5095603;28;20016;-58
2021/07/12 02:26:45;;;;;;;3.95;2.10;;;;;;;;;;5095488;28;20044;-58
2021/07/12 02:29:12;;;;;;;4.13;2.78;;;;;;;;;;5095855;28;20457;-57
2021/07/12 02:31:38;;;;;;;4.05;2.63;;;;;;;;;;5095420;28;20024;-58
2021/07/12 02:34:05;;;;;;;6.38;2.67;;;;;;;;;;5095932;28;20034;-57
2021/07/12 02:36:32;;;;;;;3.28;2.30;;;;;;;;;;5095655;28;20063;-57
2021/07/12 02:38:59;;;;;;;3.00;2.13;;;;;;;;;;5095415;28;20021;-58
2021/07/12 02:41:26;;;;;;;3.35;2.55;;;;;;;;;;5095415;28;20024;-58
2021/07/12 02:43:52;;;;;;;2.92;2.28;;;;;;;;;;5094826;28;20450;-58
2021/07/12 02:46:19;;;;;;;2.67;2.17;;;;;;;;;;5094163;28;20473;-58
2021/07/12 02:48:48;;;;;;;4.20;3.08;;;;;;;;;;5095226;28;20028;-58
2021/07/12 02:51:16;;;;;;;5.00;2.55;;;;;;;;;;5095987;28;20043;-58
2021/07/12 02:53:46;;;;;;;3.63;2.55;;;;;;;;;;5093791;28;20024;-57
2021/07/12 02:56:12;;;;;;;4.38;2.90;;;;;;;;;;5095418;28;20126;-57
2021/07/12 02:58:38;;;;;;;3.53;2.80;;;;;;;;;;5094927;28;20058;-58
2021/07/12 03:01:04;;;;;;;4.05;2.85;;;;;;;;;;5094152;28;20465;-58
2021/07/12 03:03:30;;;;;;;3.95;3.15;;;;;;;;;;5094855;28;20024;-57
2021/07/12 03:06:00;;;;;;;3.95;2.47;;;;;;;;;;5094673;28;20373;-57
2021/07/12 03:08:30;;;;;;;4.25;2.97;;;;;;;;;;5094775;28;20052;-58
2021/07/12 03:10:56;;;;;;;;;;;;;;;;;;5095159;28;20051;-58
2021/07/12 03:13:41;;;;;;;3.38;2.33;;;;;;;;;;5094977;28;19930;-57
2021/07/12 03:16:07;;;;;;;3.95;3.00;;;;;;;;;;5093384;28;20024;-58
2021/07/12 03:18:43;;;;;;;3.85;2.45;;;;;;;;;;5094200;28;20031;-58
2021/07/12 03:21:10;;;;;;;4.65;2.17;;;;;;;;;;5094296;28;20032;-58
2021/07/12 03:23:39;;;;;;;3.85;3.08;;;;;;;;;;5094486;28;20070;-57
2021/07/12 03:26:06;;;;;;;4.22;2.67;;;;;;;;;;5093944;28;20123;-57
2021/07/12 03:28:36;;;;;;;4.25;3.25;;;;;;;;;;5076402;28;20023;-58
2021/07/12 03:31:02;;;;;;;5.65;3.17;;;;;;;;;;5092997;28;20028;-57
2021/07/12 03:33:30;;;;;;;4.30;3.22;;;;;;;;;;5094857;28;20030;-57
2021/07/12 03:35:56;;;;;;;3.63;3.15;;;;;;;;;;5094791;28;20400;-57
2021/07/12 03:38:23;;;;;;;3.70;2.88;;;;;;;;;;5094020;28;20035;-56
2021/07/12 03:40:50;;;;;;;4.22;3.17;;;;;;;;;;5093560;28;20020;-57
2021/07/12 03:43:16;;;;;;;4.95;3.92;;;;;;;;;;5093593;28;20032;-58
2021/07/12 03:45:46;;;;;;;5.40;3.58;;;;;;;;;;5093138;28;20354;-58
2021/07/12 03:48:12;;;;;;;4.88;3.47;;;;;;;;;;5093069;28;20036;-58
2021/07/12 03:50:38;;;;;;;6.55;3.33;;;;;;;;;;5092817;28;20031;-57
2021/07/12 03:53:04;;;;;;;3.22;2.85;;;;;;;;;;5092975;28;20481;-58
2021/07/12 03:55:31;;;;;;;3.55;2.97;;;;;;;;;;5092499;28;20028;-57
2021/07/12 03:58:00;;;;;;;5.88;2.95;;;;;;;;;;5094330;28;20369;-57
2021/07/12 04:00:27;;;;;;;8.10;3.50;;;;;;;;;;5093957;28;20047;-57
2021/07/12 04:02:53;;;;;;;3.97;3.25;;;;;;;;;;5093275;28;20449;-57
2021/07/12 04:05:23;;;;;;;4.82;2.80;;;;;;;;;;5093851;28;20123;-57
2021/07/12 04:07:49;;;;;;;4.68;3.00;;;;;;;;;;5094241;28;20028;-57
2021/07/12 04:10:17;;;;;;;3.88;3.08;;;;;;;;;;5092471;28;20059;-57
2021/07/12 04:12:44;;;;;;;4.63;2.85;;;;;;;;;;5094496;28;20025;-57
2021/07/12 04:15:10;;;;;;;3.67;3.03;;;;;;;;;;5093800;28;20556;-58
2021/07/12 04:17:36;;;;;;;5.07;3.17;;;;;;;;;;5092397;28;20435;-57
2021/07/12 04:20:03;;;;;;;4.95;3.05;;;;;;;;;;5094325;28;20085;-57
2021/07/12 04:22:29;;;;;;;5.30;3.20;;;;;;;;;;5093440;28;20032;-57
2021/07/12 04:24:55;;;;;;;3.33;2.88;;;;;;;;;;5093688;28;20032;-57
2021/07/12 04:27:21;;;;;;;3.30;2.92;;;;;;;;;;5094032;28;20469;-57
2021/07/12 04:29:48;;;;;;;4.40;3.30;;;;;;;;;;5093733;28;20373;-57
2021/07/12 04:32:14;;;;;;;5.45;3.38;;;;;;;;;;5092420;28;20110;-58
2021/07/12 04:34:41;;;;;;;3.78;3.15;;;;;;;;;;5093684;28;20101;-57
2021/07/12 04:37:07;;;;;;;3.55;2.85;;;;;;;;;;5094413;28;20177;-58
2021/07/12 04:39:33;;;;;;;3.45;2.72;;;;;;;;;;5093589;28;20056;-57
2021/07/12 04:41:59;;;;;;;4.25;3.72;;;;;;;;;;5094422;28;20085;-58
2021/07/12 04:44:25;;;;;;;6.10;3.28;;;;;;;;;;5091941;28;20035;-57
2021/07/12 04:46:52;;;;;;;3.97;3.33;;;;;;;;;;5092961;28;20040;-58
2021/07/12 04:49:18;;;;;;;4.70;3.65;;;;;;;;;;5093697;28;20024;-58
2021/07/12 04:51:44;;;;;;;4.15;3.47;;;;;;;;;;5093939;28;20035;-57
2021/07/12 04:54:10;;;;;;;3.42;2.78;;;;;;;;;;5094023;28;20028;-57
2021/07/12 04:56:36;;;;;;;5.88;3.78;;;;;;;;;;5093212;28;20438;-58
2021/07/12 04:59:08;;;;;;;3.80;2.85;;;;;;;;;;5092287;28;20052;-57
2021/07/12 05:01:34;;;;;;;4.05;2.72;;;;;;;;;;5076762;28;20055;-57
2021/07/12 05:04:01;;;;;;;3.97;3.05;;;;;;;;;;5093660;28;20038;-57
2021/07/12 05:06:33;;;;;;;3.78;3.30;;;;;;;;;;5093177;28;20474;-57
2021/07/12 05:08:59;;;;;;;4.82;2.97;;;;;;;;;;5094079;28;20458;-57
2021/07/12 05:11:26;;;;;;;7.07;3.85;;;;;;;;;;5097243;28;20059;-57
2021/07/12 05:13:52;;;;;;;3.47;2.42;;;;;;;;;;5096933;28;20073;-57
2021/07/12 05:16:19;;;;;;;4.18;3.33;;;;;;;;;;5095517;28;20476;-57
2021/07/12 05:18:45;;;;;;;4.38;2.70;;;;;;;;;;5095363;28;20115;-57
2021/07/12 05:21:11;;;;;;;4.68;2.70;;;;;;;;;;5096428;28;20457;-57
2021/07/12 05:23:37;;;;;;;5.85;2.75;;;;;;;;;;5096831;28;20028;-57
2021/07/12 05:26:06;;;;;;;4.68;3.15;;;;;;;;;;5096984;28;20031;-57
2021/07/12 05:28:33;;;;;;;4.75;2.33;;;;;;;;;;5079193;28;20020;-57
2021/07/12 05:30:58;;;;;;;3.88;2.75;;;;;;;;;;5096627;28;20369;-57
2021/07/12 05:33:24;;;;;;;4.47;2.90;;;;;;;;;;5095221;28;20123;-58
2021/07/12 05:35:53;;;;;;;5.07;2.85;;;;;;;;;;5096990;28;20024;-58
2021/07/12 05:38:19;;;;;;;3.67;2.47;;;;;;;;;;5096566;28;20032;-57
2021/07/12 05:40:45;;;;;;;4.70;2.53;;;;;;;;;;5095204;28;20046;-57
2021/07/12 05:43:13;;;;;;;3.83;2.67;;;;;;;;;;5097337;28;20016;-57
2021/07/12 05:45:39;;;;;;;3.92;2.63;;;;;;;;;;5096301;28;20028;-58
2021/07/12 05:48:06;;;;;;;5.88;2.22;;;;;;;;;;5095359;28;20024;-58
2021/07/12 05:50:32;;;;;;;3.15;2.63;;;;;;;;;;5096343;28;20031;-58
2021/07/12 05:52:58;;;;;;;3.55;2.50;;;;;;;;;;5097151;28;20026;-58
2021/07/12 05:55:24;;;;;;;3.30;2.20;;;;;;;;;;5095215;28;20111;-58
2021/07/12 05:57:50;;;;;;;3.63;2.92;;;;;;;;;;5096456;28;20425;-58
2021/07/12 06:00:16;;;;;;;3.40;2.40;;;;;;;;;;5095149;28;20120;-58
2021/07/12 06:02:43;;;;;;;4.20;2.75;;;;;;;;;;5096389;28;20115;-58
2021/07/12 06:05:09;;;;;;;5.75;2.65;;;;;;;;;;5096476;28;20028;-58
2021/07/12 06:07:36;;;;;;;3.92;2.83;;;;;;;;;;5095829;28;20027;-58
2021/07/12 06:10:02;;;;;;;3.33;2.92;;;;;;;;;;5096395;28;20480;-58
2021/07/12 06:12:28;;;;;;;4.20;3.15;;;;;;;;;;5095946;28;20028;-57
2021/07/12 06:14:54;;;;;;;3.92;1.90;;;;;;;;;;5094641;28;20039;-58
2021/07/12 06:17:20;;;;;;;3.63;2.28;;;;;;;;;;5095044;28;20068;-58
2021/07/12 06:19:46;;;;;;;3.65;2.22;;;;;;;;;;5095005;28;20445;-58
2021/07/12 06:22:12;;;;;;;4.00;2.42;;;;;;;;;;5096289;28;20024;-58
2021/07/12 06:24:38;;;;;;;4.78;2.10;;;;;;;;;;5094506;28;20450;-58
2021/07/12 06:27:05;;;;;;;2.90;2.00;;;;;;;;;;5095950;28;20024;-58
2021/07/12 06:29:31;;;;;;;2.17;1.73;;;;;;;;;;5096142;28;20027;-58
2021/07/12 06:31:59;;;;;;;2.35;1.63;;;;;;;;;;5096074;28;20077;-58
2021/07/12 06:34:25;;;;;;;3.05;1.95;;;;;;;;;;5095789;28;20081;-57
2021/07/12 06:36:51;;;;;;;3.67;2.03;;;;;;;;;;5095450;28;20104;-58
2021/07/12 06:39:18;;;;;;;3.88;1.73;;;;;;;;;;5094424;28;20097;-58
2021/07/12 06:41:44;;;;;;;2.70;1.67;;;;;;;;;;5095923;28;20096;-58
2021/07/12 06:44:10;;;;;;;2.88;1.63;;;;;;;;;;5095327;28;20365;-58
2021/07/12 06:46:36;;;;;;;3.28;1.77;;;;;;;;;;5093963;28;20047;-58
2021/07/12 06:49:02;;;;;;;2.53;1.67;;;;;;;;;;5095285;28;20042;-58
2021/07/12 06:51:28;;;;;;;2.97;1.80;;;;;;;;;;5095134;28;20024;-58
2021/07/12 06:53:55;;;;;;;2.40;1.63;;;;;;;;;;5095475;28;20481;-58
2021/07/12 06:56:21;;;;;;;2.40;1.50;;;;;;;;;;5095077;28;20024;-58
2021/07/12 06:58:47;;;;;;;2.63;1.50;;;;;;;;;;5094884;28;20028;-58
2021/07/12 07:01:16;;;;;;;3.78;1.55;;;;;;;;;;5093853;28;20028;-58
2021/07/12 07:03:45;;;;;;;2.17;1.20;;;;;;;;;;5094964;28;20048;-58
2021/07/12 07:06:11;;;;;;;2.50;1.70;;;;;;;;;;5093975;28;20119;-59
2021/07/12 07:08:37;;;;;;;2.25;1.40;;;;;;;;;;5094906;28;20102;-58
2021/07/12 07:11:03;;;;;;;2.97;1.45;;;;;;;;;;5094386;28;20044;-58
2021/07/12 07:13:29;;;;;;;2.80;1.48;;;;;;;;;;5093470;28;20079;-58
2021/07/12 07:15:56;;;;;;;2.50;1.55;;;;;;;;;;5093495;28;20469;-58
2021/07/12 07:18:22;;;;;;;2.50;1.50;;;;;;;;;;5094716;28;20052;-59
2021/07/12 07:20:48;;;;;;;2.03;1.20;;;;;;;;;;5095173;28;20020;-58
2021/07/12 07:23:14;;;;;;;2.25;1.20;;;;;;;;;;5095240;28;20184;-58
2021/07/12 07:25:40;;;;;;;2.33;1.20;;;;;;;;;;5094139;28;20058;-58
2021/07/12 07:28:06;;;;;;;3.70;2.03;;;;;;;;;;5094398;28;20036;-59
2021/07/12 07:30:32;;;;;;;5.35;1.63;;;;;;;;;;5092870;28;20028;-59
2021/07/12 07:32:58;;;;;;;1.73;1.02;;;;;;;;;;5093088;28;20020;-59
2021/07/12 07:35:25;;;;;;;2.28;1.40;;;;;;;;;;5094388;28;20112;-59
2021/07/12 07:37:54;;;;;;;2.38;1.30;;;;;;;;;;5094359;28;20020;-59
2021/07/12 07:40:20;;;;;;;3.28;1.45;;;;;;;;;;5094317;28;20024;-59
2021/07/12 07:42:46;;;;;;;4.65;1.73;;;;;;;;;;5094880;28;20047;-58
2021/07/12 07:45:13;;;;;;;4.03;1.80;;;;;;;;;;5094039;28;20412;-59
2021/07/12 07:47:39;;;;;;;3.55;1.50;;;;;;;;;;5094466;28;20335;-58
2021/07/12 07:50:06;;;;;;;3.45;1.63;;;;;;;;;;5094780;28;20369;-59
2021/07/12 07:52:35;;;;;;;5.80;1.58;;;;;;;;;;5092684;28;20024;-59
2021/07/12 07:55:02;;;;;;;2.40;1.35;;;;;;;;;;5093908;28;20415;-59
2021/07/12 07:57:28;;;;;;;2.55;1.50;;;;;;;;;;5094137;28;20024;-59
2021/07/12 07:59:54;;;;;;;3.50;1.90;;;;;;;;;;5094335;28;20020;-59
2021/07/12 08:02:20;;;;;;;3.40;1.65;;;;;;;;;;5094341;28;20034;-59
2021/07/12 08:04:46;;;;;;;2.50;1.08;;;;;;;;;;5093652;28;20016;-59
2021/07/12 08:07:12;;;;;;;2.50;1.00;;;;;;;;;;5094073;28;20450;-58
2021/07/12 08:09:38;;;;;;;2.42;1.10;;;;;;;;;;5092585;28;20408;-59
2021/07/12 08:12:04;;;;;;;2.15;1.08;;;;;;;;;;5092660;28;20032;-59
2021/07/12 08:14:30;;;;;;;3.45;1.85;;;;;;;;;;5092654;28;20024;-59
2021/07/12 08:16:59;;;;;;;2.90;1.30;;;;;;;;;;5093952;28;20107;-59
2021/07/12 08:19:25;;;;;;;3.42;1.77;;;;;;;;;;5093829;28;20031;-59
2021/07/12 08:21:51;;;;;;;1.90;1.20;;;;;;;;;;5092933;28;20016;-59
2021/07/12 08:24:17;;;;;;;1.90;1.17;;;;;;;;;;5094324;28;20454;-59
2021/07/12 08:26:43;;;;;;;2.17;1.02;;;;;;;;;;5093727;28;20023;-59
2021/07/12 08:29:12;;;;;;;2.67;1.52;;;;;;;;;;5093683;28;20024;-59
2021/07/12 08:31:41;;;;;;;2.92;1.30;;;;;;;;;;5093417;28;20343;-59
2021/07/12 08:34:07;;;;;;;1.70;1.10;;;;;;;;;;5093963;28;20027;-59
2021/07/12 08:36:33;;;;;;;2.00;1.08;;;;;;;;;;5093776;28;20024;-59
2021/07/12 08:39:00;;;;;;;2.05;1.10;;;;;;;;;;5093955;28;20066;-59
2021/07/12 08:41:26;;;;;;;2.45;1.20;;;;;;;;;;5093223;28;20115;-59
2021/07/12 08:43:52;;;;;;;2.45;1.17;;;;;;;;;;5095434;28;20062;-59
2021/07/12 08:46:18;;;;;;;1.88;0.82;;;;;;;;;;5096881;28;20028;-59
2021/07/12 08:48:44;;;;;;;3.35;1.40;;;;;;;;;;5097898;28;20020;-59
2021/07/12 08:51:10;;;;;;;1.65;1.08;;;;;;;;;;5097254;28;20055;-59
2021/07/12 08:53:37;;;;;;;1.80;1.20;;;;;;;;;;5097505;28;20024;-59
2021/07/12 08:56:03;;;;;;;2.15;1.25;;;;;;;;;;5097926;28;20063;-59
2021/07/12 08:58:33;;;;;;;1.90;1.30;;;;;;;;;;5097391;28;20057;-59
2021/07/12 09:01:08;;;;;;;2.55;1.05;;;;;;;;;;5097962;28;20020;-59
2021/07/12 09:03:35;;;;;;;2.28;1.00;;;;;;;;;;5097334;28;20028;-59
2021/07/12 09:06:01;;;;;;;2.15;0.80;;;;;;;;;;5097236;28;20028;-59
2021/07/12 09:08:43;;;;;;;2.65;1.40;;;;;;;;;;5097377;28;20035;-59
2021/07/12 09:11:16;;;;;;;2.50;1.23;;;;;;;;;;5097856;28;20052;-59
2021/07/12 09:13:47;;;;;;;1.80;1.20;;;;;;;;;;5097697;28;20027;-59
2021/07/12 09:16:33;;;;;;;2.67;1.00;;;;;;;;;;5096054;28;20039;-59
2021/07/12 09:19:18;;;;;;;1.85;1.10;;;;;;;;;;5096991;28;20020;-59
2021/07/12 09:21:48;;;;;;;1.38;0.75;;;;;;;;;;5096997;28;20035;-59
2021/07/12 09:24:20;;;;;;;2.13;1.27;;;;;;;;;;5097202;28;20032;-59
2021/07/12 09:26:47;;;;;;;1.70;0.93;;;;;;;;;;5097074;28;20362;-59
2021/07/12 09:29:15;;;;;;;1.73;0.98;;;;;;;;;;5096882;28;20470;-59
2021/07/12 09:31:41;;;;;;;1.80;0.98;;;;;;;;;;5097467;28;20039;-59
2021/07/12 09:34:07;;;;;;;2.30;1.20;;;;;;;;;;5096756;28;20028;-59
2021/07/12 09:36:33;;;;;;;2.35;1.20;;;;;;;;;;5096507;28;20389;-59
2021/07/12 09:39:16;;;;;;;2.30;1.10;;;;;;;;;;5096708;28;20024;-59
2021/07/12 09:41:42;;;;;;;2.00;1.00;;;;;;;;;;5096871;28;20031;-59
2021/07/12 09:44:08;;;;;;;1.20;0.70;;;;;;;;;;5096509;28;20016;-59
2021/07/12 09:46:34;;;;;;;2.03;1.00;;;;;;;;;;5096430;28;20453;-59
2021/07/12 09:49:07;;;;;;;1.88;0.75;;;;;;;;;;5096501;28;20444;-59
2021/07/12 09:51:34;;;;;;;2.85;1.38;;;;;;;;;;5096444;28;20024;-59
2021/07/12 09:54:19;;;;;;;2.28;1.23;;;;;;;;;;5096535;28;20071;-59
2021/07/12 09:56:46;;;;;;;1.83;0.77;;;;;;;;;;5096388;28;20369;-59
2021/07/12 09:59:13;;;;;;;2.63;1.05;;;;;;;;;;5095876;28;20028;-59
2021/07/12 10:01:39;;;;;;;2.45;0.85;;;;;;;;;;5096209;28;20016;-59
2021/07/12 10:04:05;;;;;;;2.00;1.30;;;;;;;;;;5096056;28;20457;-59
2021/07/12 10:06:32;;;;;;;2.13;1.02;;;;;;;;;;5096583;28;20056;-59
2021/07/12 10:08:58;;;;;;;2.63;1.50;;;;;;;;;;5096610;28;20025;-59
2021/07/12 10:11:24;;;;;;;1.70;1.00;;;;;;;;;;5096241;28;20142;-59
2021/07/12 10:13:50;;;;;;;1.85;0.95;;;;;;;;;;5096062;28;20059;-59
2021/07/12 10:16:17;;;;;;;3.22;1.25;;;;;;;;;;5096242;28;20128;-59
2021/07/12 10:18:43;;;;;;;1.23;0.85;;;;;;;;;;5096491;28;20024;-59
2021/07/12 10:21:09;;;;;;;1.65;0.93;;;;;;;;;;5095879;28;20024;-59
2021/07/12 10:23:35;;;;;;;1.45;0.82;;;;;;;;;;5095579;28;20457;-59
2021/07/12 10:26:02;;;;;;;1.73;1.05;;;;;;;;;;5095661;28;20039;-59
2021/07/12 10:28:41;;;;;;;1.23;0.68;;;;;;;;;;5095807;28;20078;-59
2021/07/12 10:31:18;;;;;;;2.15;1.30;;;;;;;;;;5095563;28;20043;-59
2021/07/12 10:33:44;;;;;;;2.05;1.10;;;;;;;;;;5095595;28;20114;-59
2021/07/12 10:36:32;;;;;;;1.85;1.13;;;;;;;;;;5096006;28;20365;-59
2021/07/12 10:38:58;;;;;;;1.55;0.95;;;;;;;;;;5094425;28;20016;-59
2021/07/12 10:41:28;;;;;;;2.55;1.23;;;;;;;;;;5095981;28;20114;-59
2021/07/12 10:43:57;;;;;;;3.28;1.20;;;;;;;;;;5095469;28;20390;-59
2021/07/12 10:46:32;;;;;;;1.88;0.80;;;;;;;;;;5095256;28;20020;-60
2021/07/12 10:48:59;;;;;;;2.83;1.25;;;;;;;;;;5096032;28;20055;-59
2021/07/12 10:51:25;;;;;;;1.20;0.70;;;;;;;;;;5095161;28;20025;-59
2021/07/12 10:53:57;;;;;;;1.42;0.82;;;;;;;;;;5095437;28;20024;-59
2021/07/12 10:56:24;;;;;;;1.80;1.00;;;;;;;;;;5094972;28;20494;-59
2021/07/12 10:58:50;;;;;;;1.45;0.88;;;;;;;;;;5095473;28;20024;-59
2021/07/12 11:01:18;;;;;;;1.95;1.20;;;;;;;;;;5095558;28;20073;-59
2021/07/12 11:03:50;;;;;;;1.48;0.93;;;;;;;;;;5094990;28;20058;-59
2021/07/12 11:06:21;;;;;;;2.08;0.98;;;;;;;;;;5093947;28;20032;-59
2021/07/12 11:08:50;;;;;;;2.10;1.00;;;;;;;;;;5094907;28;20393;-59
2021/07/12 11:11:19;;;;;;;1.83;0.93;;;;;;;;;;5095598;28;20051;-59
2021/07/12 11:13:51;;;;;;;4.55;1.10;;;;;;;;;;5095344;28;20031;-59
2021/07/12 11:16:19;;;;;;;1.85;1.20;;;;;;;;;;5095299;28;20035;-59
2021/07/12 11:18:45;;;;;;;2.78;1.30;;;;;;;;;;5076229;28;20038;-59
2021/07/12 11:21:12;;;;;;;2.00;1.10;;;;;;;;;;5093992;28;20024;-59
2021/07/12 11:23:48;;;;;;;2.00;1.08;;;;;;;;;;5094932;28;20354;-60
2021/07/12 11:26:30;;;;;;;2.00;1.10;;;;;;;;;;5094469;28;20016;-59
2021/07/12 11:29:11;;;;;;;3.35;1.27;;;;;;;;;;5094921;28;20020;-59
2021/07/12 11:31:46;;;;;;;1.67;0.85;;;;;;;;;;5094353;28;20099;-59
2021/07/12 11:34:14;;;;;;;3.10;1.05;;;;;;;;;;5094495;28;20024;-59
2021/07/12 11:36:40;;;;;;;1.42;0.77;;;;;;;;;;5094399;28;20028;-59
2021/07/12 11:39:06;;;;;;;2.00;0.95;;;;;;;;;;5094348;28;20396;-59
2021/07/12 11:41:32;;;;;;;2.15;0.95;;;;;;;;;;5094932;28;20073;-59
2021/07/12 11:44:06;;;;;;;1.83;1.17;;;;;;;;;;5094527;28;20039;-59
2021/07/12 11:46:32;;;;;;;1.67;0.90;;;;;;;;;;5093838;28;20558;-59
2021/07/12 11:49:21;;;;;;;2.47;0.88;;;;;;;;;;5094748;28;20035;-60
2021/07/12 11:51:52;;;;;;;1.92;1.15;;;;;;;;;;5093966;28;20036;-59
2021/07/12 11:54:28;;;;;;;1.60;0.70;;;;;;;;;;5093935;28;20535;-59
2021/07/12 11:56:55;;;;;;;2.08;1.25;;;;;;;;;;5094173;28;20032;-59
2021/07/12 11:59:34;;;;;;;2.05;0.70;;;;;;;;;;5094256;28;20371;-59
2021/07/12 12:02:12;;;;;;;1.70;0.98;;;;;;;;;;5094380;28;20024;-60
2021/07/12 12:04:42;;;;;;;1.35;0.70;;;;;;;;;;5094119;28;20028;-59
2021/07/12 12:07:24;;;;;;;1.73;1.00;;;;;;;;;;5093858;28;20114;-60
2021/07/12 12:10:04;;;;;;;2.88;1.25;;;;;;;;;;5093942;28;20047;-60
2021/07/12 12:12:44;;;;;;;1.40;0.60;;;;;;;;;;5094054;28;20016;-60
2021/07/12 12:15:30;;;;;;;1.50;0.77;;;;;;;;;;5093864;28;20028;-60
2021/07/12 12:17:58;;;;;;;2.03;1.15;;;;;;;;;;5097221;28;20016;-60
2021/07/12 12:20:28;;;;;;;3.45;1.10;;;;;;;;;;5100181;28;20027;-60
2021/07/12 12:22:54;;;;;;;1.65;1.00;;;;;;;;;;5101168;28;20028;-60
2021/07/12 12:25:20;;;;;;;1.73;1.02;;;;;;;;;;5100198;28;20485;-60
2021/07/12 12:27:46;;;;;;;3.60;0.90;;;;;;;;;;5100632;28;20418;-60
2021/07/12 12:30:13;;;;;;;1.95;0.95;;;;;;;;;;5101388;28;20038;-59
2021/07/12 12:32:39;;;;;;;1.67;1.00;;;;;;;;;;5100817;28;20112;-60
2021/07/12 12:35:06;;;;;;;2.08;1.15;;;;;;;;;;5100540;28;20469;-60
2021/07/12 12:37:35;;;;;;;3.35;1.27;;;;;;;;;;5099321;28;20027;-60
2021/07/12 12:40:20;;;;;;;1.75;1.00;;;;;;;;;;5100760;28;20028;-60
2021/07/12 12:42:47;;;;;;;3.17;1.08;;;;;;;;;;5100986;28;20024;-60
2021/07/12 12:45:13;;;;;;;1.88;1.02;;;;;;;;;;5100394;28;20077;-60
2021/07/12 12:47:44;;;;;;;1.90;1.15;;;;;;;;;;5099679;28;20028;-60
2021/07/12 12:50:14;;;;;;;1.77;1.00;;;;;;;;;;5100416;28;20024;-60
2021/07/12 12:52:40;;;;;;;2.60;1.38;;;;;;;;;;5100494;28;20483;-60
2021/07/12 12:55:13;;;;;;;2.10;0.80;;;;;;;;;;5100611;28;20103;-60
2021/07/12 12:57:40;;;;;;;1.90;1.25;;;;;;;;;;5100894;28;20024;-60
2021/07/12 13:00:10;;;;;;;1.45;0.93;;;;;;;;;;5100250;28;20028;-60
2021/07/12 13:02:37;;;;;;;2.63;1.30;;;;;;;;;;5100837;28;20020;-60
2021/07/12 13:05:07;;;;;;;1.83;0.95;;;;;;;;;;5100000;28;20024;-60
2021/07/12 13:07:42;;;;;;;2.53;1.23;;;;;;;;;;5100897;28;20109;-60
2021/07/12 13:10:08;;;;;;;2.72;1.38;;;;;;;;;;5100480;28;20530;-60
2021/07/12 13:12:39;;;;;;;1.63;0.73;;;;;;;;;;5100144;28;20024;-60
2021/07/12 13:15:07;;;;;;;2.13;1.25;;;;;;;;;;5099863;28;20469;-60
2021/07/12 13:17:36;;;;;;;1.80;0.98;;;;;;;;;;5100657;28;20024;-60
2021/07/12 13:20:08;;;;;;;2.30;1.17;;;;;;;;;;5099898;28;20024;-60
2021/07/12 13:22:49;;;;;;;1.35;0.65;;;;;;;;;;5099784;28;20192;-60
2021/07/12 13:25:16;;;;;;;2.35;1.30;;;;;;;;;;5100326;28;20404;-60
2021/07/12 13:28:03;;;;;;;1.70;1.00;;;;;;;;;;5100134;28;20127;-60
2021/07/12 13:30:31;;;;;;;1.95;0.95;;;;;;;;;;5096309;28;20028;-60
2021/07/12 13:32:57;;;;;;;2.35;1.52;;;;;;;;;;5097111;28;20066;-60
2021/07/12 13:35:25;;;;;;;4.45;1.55;;;;;;;;;;5096898;28;20481;-60
2021/07/12 13:37:52;;;;;;;2.17;1.23;;;;;;;;;;5097297;28;20055;-60
2021/07/12 13:40:18;;;;;;;2.42;1.17;;;;;;;;;;5095471;28;20056;-60
2021/07/12 13:42:45;;;;;;;1.55;0.98;;;;;;;;;;5097182;28;20024;-60
2021/07/12 13:45:11;;;;;;;1.88;1.08;;;;;;;;;;5096820;28;20028;-60
2021/07/12 13:47:38;;;;;;;3.47;1.33;;;;;;;;;;5097062;28;20024;-60
2021/07/12 13:50:05;;;;;;;1.67;1.02;;;;;;;;;;5096437;28;20111;-60
2021/07/12 13:52:31;;;;;;;3.05;1.40;;;;;;;;;;5096955;28;20027;-60
2021/07/12 13:54:57;;;;;;;1.75;1.00;;;;;;;;;;5096420;28;20028;-60
2021/07/12 13:57:23;;;;;;;2.45;1.30;;;;;;;;;;5096403;28;20080;-60
2021/07/12 13:59:49;;;;;;;2.92;1.42;;;;;;;;;;5096313;28;20398;-60
2021/07/12 14:02:16;;;;;;;1.80;1.08;;;;;;;;;;5096207;28;20016;-60
2021/07/12 14:04:43;;;;;;;2.50;1.45;;;;;;;;;;5096241;28;20020;-60
2021/07/12 14:07:10;;;;;;;3.25;1.83;;;;;;;;;;5096739;28;20047;-60
2021/07/12 14:09:36;;;;;;;3.17;1.70;;;;;;;;;;5095582;28;20461;-60
2021/07/12 14:12:03;;;;;;;1.80;1.30;;;;;;;;;;5096382;28;20035;-60
2021/07/12 14:14:29;;;;;;;2.28;1.45;;;;;;;;;;5096045;28;20028;-60
2021/07/12 14:16:55;;;;;;;3.28;1.25;;;;;;;;;;5096566;28;20036;-60
2021/07/12 14:19:21;;;;;;;2.13;1.30;;;;;;;;;;5096228;28;20028;-60
2021/07/12 14:21:47;;;;;;;1.75;1.13;;;;;;;;;;5096734;28;20027;-60
2021/07/12 14:24:13;;;;;;;2.83;1.65;;;;;;;;;;5096083;28;20493;-60
2021/07/12 14:26:39;;;;;;;2.97;1.58;;;;;;;;;;5095649;28;20082;-60
2021/07/12 14:29:06;;;;;;;3.50;1.80;;;;;;;;;;5095712;28;20416;-60
2021/07/12 14:31:32;;;;;;;4.47;1.27;;;;;;;;;;5095985;28;20098;-60
2021/07/12 14:33:58;;;;;;;2.97;1.60;;;;;;;;;;5095935;28;20085;-60
2021/07/12 14:36:24;;;;;;;2.38;1.55;;;;;;;;;;5095509;28;20032;-60
2021/07/12 14:38:50;;;;;;;1.95;1.30;;;;;;;;;;5095957;28;20019;-60
2021/07/12 14:41:16;;;;;;;2.20;1.20;;;;;;;;;;5094925;28;20020;-60
2021/07/12 14:43:44;;;;;;;2.60;1.50;;;;;;;;;;5095648;28;20026;-60
2021/07/12 14:46:10;;;;;;;1.80;1.48;;;;;;;;;;5095625;28;20024;-60
2021/07/12 14:48:37;;;;;;;1.73;1.05;;;;;;;;;;5094916;28;20347;-60
2021/07/12 14:51:03;;;;;;;2.30;1.40;;;;;;;;;;5095308;28;20024;-60